createdAt,value
2022-08-28T00:01:15.888Z,18.07
2022-08-28T00:03:43.686Z,18.07
2022-08-28T00:06:12.807Z,18.07
2022-08-28T00:08:40.677Z,18.06
2022-08-28T00:11:08.390Z,18.05
2022-08-28T00:13:38.105Z,18.02
2022-08-28T00:16:06.226Z,17.99
2022-08-28T00:18:34.057Z,17.94
2022-08-28T00:21:02.340Z,17.91
2022-08-28T00:23:42.320Z,17.87
2022-08-28T00:26:11.354Z,17.81
2022-08-28T00:28:39.167Z,17.78
2022-08-28T00:31:07.155Z,17.74
2022-08-28T00:33:35.314Z,17.70
2022-08-28T00:36:05.060Z,17.66
2022-08-28T00:38:33.181Z,17.63
2022-08-28T00:41:03.886Z,17.59
2022-08-28T00:43:42.973Z,17.53
2022-08-28T00:46:14.983Z,17.49
2022-08-28T00:48:43.264Z,17.45
2022-08-28T00:51:30.271Z,17.41
2022-08-28T00:53:59.368Z,17.37
2022-08-28T00:56:29.366Z,17.36
2022-08-28T00:58:58.614Z,17.34
2022-08-28T01:01:26.457Z,17.33
2022-08-28T01:03:54.431Z,17.32
2022-08-28T01:06:22.311Z,17.31
2022-08-28T01:08:50.623Z,17.30
2022-08-28T01:11:19.742Z,17.30
2022-08-28T01:13:48.695Z,17.32
2022-08-28T01:16:18.057Z,17.32
2022-08-28T01:18:46.549Z,17.33
2022-08-28T01:21:23.891Z,17.31
2022-08-28T01:23:53.751Z,17.29
2022-08-28T01:26:22.092Z,17.25
2022-08-28T01:28:52.220Z,17.22
2022-08-28T01:31:21.791Z,17.18
2022-08-28T01:33:49.885Z,17.12
2022-08-28T01:36:18.018Z,17.07
2022-08-28T01:38:49.152Z,17.00
2022-08-28T01:41:17.095Z,16.94
2022-08-28T01:43:44.932Z,16.87
2022-08-28T01:46:12.896Z,16.81
2022-08-28T01:48:42.852Z,16.73
2022-08-28T01:51:11.548Z,16.67
2022-08-28T01:53:39.630Z,16.62
2022-08-28T01:56:09.907Z,16.58
2022-08-28T01:58:38.705Z,16.54
2022-08-28T02:01:11.135Z,16.51
2022-08-28T02:03:39.600Z,16.50
2022-08-28T02:06:07.615Z,16.49
2022-08-28T02:08:36.865Z,16.48
2022-08-28T02:11:06.494Z,16.46
2022-08-28T02:13:38.491Z,16.47
2022-08-28T02:16:08.959Z,16.47
2022-08-28T02:18:38.239Z,16.44
2022-08-28T02:21:07.209Z,16.41
2022-08-28T02:23:36.376Z,16.40
2022-08-28T02:26:04.175Z,16.38
2022-08-28T02:28:34.247Z,16.34
2022-08-28T02:31:02.662Z,16.28
2022-08-28T02:33:30.464Z,16.24
2022-08-28T02:35:58.248Z,16.18
2022-08-28T02:38:26.954Z,16.13
2022-08-28T02:40:54.682Z,16.07
2022-08-28T02:43:22.699Z,16.02
2022-08-28T02:45:50.548Z,15.98
2022-08-28T02:48:18.546Z,15.94
2022-08-28T02:50:47.289Z,15.93
2022-08-28T02:53:15.272Z,15.93
2022-08-28T02:55:43.153Z,15.93
2022-08-28T02:58:11.081Z,15.94
2022-08-28T03:00:39.053Z,15.96
2022-08-28T03:03:06.886Z,15.98
2022-08-28T03:05:34.749Z,15.99
2022-08-28T03:08:02.870Z,16.00
2022-08-28T03:10:30.576Z,16.00
2022-08-28T03:12:58.367Z,15.98
2022-08-28T03:15:26.291Z,15.94
2022-08-28T03:17:54.218Z,15.89
2022-08-28T03:20:22.194Z,15.84
2022-08-28T03:23:08.613Z,15.81
2022-08-28T03:25:36.585Z,15.80
2022-08-28T03:28:04.452Z,15.76
2022-08-28T03:30:32.348Z,15.72
2022-08-28T03:33:01.281Z,15.69
2022-08-28T03:35:29.149Z,15.69
2022-08-28T03:37:56.906Z,15.70
2022-08-28T03:40:24.772Z,15.70
2022-08-28T03:42:53.544Z,15.70
2022-08-28T03:45:22.240Z,15.70
2022-08-28T03:47:50.864Z,15.71
2022-08-28T03:50:19.795Z,15.74
2022-08-28T03:52:47.755Z,15.78
2022-08-28T03:55:16.869Z,15.82
2022-08-28T03:57:45.963Z,15.85
2022-08-28T04:00:14.302Z,15.91
2022-08-28T04:02:42.875Z,15.97
2022-08-28T04:05:11.284Z,16.00
2022-08-28T04:07:40.219Z,16.03
2022-08-28T04:10:08.490Z,16.08
2022-08-28T04:12:37.158Z,16.12
2022-08-28T04:15:06.937Z,16.15
2022-08-28T04:17:37.489Z,16.16
2022-08-28T04:20:06.481Z,16.15
2022-08-28T04:22:34.535Z,16.15
2022-08-28T04:25:02.479Z,16.14
2022-08-28T04:27:30.293Z,16.17
2022-08-28T04:29:58.169Z,16.21
2022-08-28T04:32:25.951Z,16.22
2022-08-28T04:34:54.103Z,16.25
2022-08-28T04:37:22.823Z,16.29
2022-08-28T04:39:55.798Z,16.32
2022-08-28T04:42:23.664Z,16.35
2022-08-28T04:44:55.562Z,16.38
2022-08-28T04:47:23.922Z,16.42
2022-08-28T04:49:51.741Z,16.48
2022-08-28T04:52:19.608Z,16.57
2022-08-28T04:54:47.416Z,16.63
2022-08-28T04:57:15.445Z,16.69
2022-08-28T04:59:45.214Z,16.75
2022-08-28T05:02:13.126Z,16.84
2022-08-28T05:04:40.944Z,16.93
2022-08-28T05:07:08.783Z,17.03
2022-08-28T05:09:36.646Z,17.10
2022-08-28T05:12:05.338Z,17.18
2022-08-28T05:14:33.175Z,17.20
2022-08-28T05:17:00.977Z,17.18
2022-08-28T05:19:28.720Z,17.16
2022-08-28T05:21:56.748Z,17.14
2022-08-28T05:24:24.533Z,17.17
2022-08-28T05:26:52.417Z,17.28
2022-08-28T05:29:20.295Z,17.46
2022-08-28T05:31:48.558Z,17.72
2022-08-28T05:34:16.871Z,18.06
2022-08-28T05:36:44.746Z,18.42
2022-08-28T05:39:13.089Z,18.93
2022-08-28T05:41:42.420Z,19.63
2022-08-28T05:44:11.779Z,20.18
2022-08-28T05:46:41.695Z,20.68
2022-08-28T05:49:10.428Z,21.30
2022-08-28T05:51:40.217Z,21.77
2022-08-28T05:54:08.772Z,22.03
2022-08-28T05:56:38.823Z,22.27
2022-08-28T05:59:07.557Z,22.56
2022-08-28T06:01:39.918Z,22.75
2022-08-28T06:04:10.391Z,22.96
2022-08-28T06:06:39.883Z,23.34
2022-08-28T06:09:11.411Z,23.67
2022-08-28T06:11:43.339Z,24.02
2022-08-28T06:14:16.187Z,24.32
2022-08-28T06:16:46.560Z,24.53
2022-08-28T06:19:14.769Z,24.66
2022-08-28T06:21:42.747Z,24.92
2022-08-28T06:24:11.603Z,25.28
2022-08-28T06:26:41.765Z,25.71
2022-08-28T06:29:11.525Z,26.08
2022-08-28T06:31:40.249Z,26.28
2022-08-28T06:34:10.282Z,26.54
2022-08-28T06:36:42.071Z,26.79
2022-08-28T06:39:11.038Z,27.03
2022-08-28T06:41:43.101Z,27.18
2022-08-28T06:44:12.607Z,27.11
2022-08-28T06:46:41.192Z,26.85
2022-08-28T06:49:09.173Z,26.62
2022-08-28T06:51:36.976Z,26.55
2022-08-28T06:54:06.235Z,26.62
2022-08-28T06:56:34.143Z,26.63
2022-08-28T06:59:02.166Z,26.73
2022-08-28T07:01:33.232Z,26.81
2022-08-28T07:04:04.202Z,26.89
2022-08-28T07:06:34.420Z,27.14
2022-08-28T07:09:03.485Z,27.15
2022-08-28T07:11:32.480Z,27.00
2022-08-28T07:14:01.187Z,27.05
2022-08-28T07:16:31.170Z,27.09
2022-08-28T07:18:59.840Z,27.10
2022-08-28T07:21:27.783Z,27.20
2022-08-28T07:23:55.820Z,27.29
2022-08-28T07:26:26.171Z,27.26
2022-08-28T07:28:59.453Z,27.34
2022-08-28T07:31:43.209Z,27.37
2022-08-28T07:34:12.830Z,27.29
2022-08-28T07:36:41.302Z,27.27
2022-08-28T07:39:09.963Z,27.33
2022-08-28T07:41:40.705Z,27.41
2022-08-28T07:44:28.411Z,27.55
2022-08-28T07:46:57.513Z,27.73
2022-08-28T07:49:26.061Z,27.65
2022-08-28T07:51:54.628Z,27.52
2022-08-28T07:54:23.171Z,27.54
2022-08-28T07:56:51.751Z,27.58
2022-08-28T07:59:21.029Z,27.46
2022-08-28T08:01:51.541Z,27.54
2022-08-28T08:04:21.106Z,27.82
2022-08-28T08:06:53.246Z,27.95
2022-08-28T08:09:23.858Z,27.99
2022-08-28T08:11:51.715Z,28.05
2022-08-28T08:14:19.695Z,28.15
2022-08-28T08:16:48.194Z,28.25
2022-08-28T08:19:16.389Z,28.26
2022-08-28T08:21:45.469Z,28.33
2022-08-28T08:24:19.414Z,28.24
2022-08-28T08:26:58.897Z,28.14
2022-08-28T08:29:33.529Z,28.03
2022-08-28T08:32:06.555Z,27.97
2022-08-28T08:34:38.741Z,28.00
2022-08-28T08:37:07.112Z,28.08
2022-08-28T08:39:35.983Z,28.13
2022-08-28T08:42:05.481Z,28.11
2022-08-28T08:44:41.641Z,28.13
2022-08-28T08:47:15.756Z,28.13
2022-08-28T08:49:55.766Z,28.13
2022-08-28T08:52:23.972Z,28.10
2022-08-28T08:55:10.699Z,28.08
2022-08-28T08:57:46.177Z,28.09
2022-08-28T09:00:18.173Z,28.16
2022-08-28T09:02:52.184Z,28.24
2022-08-28T09:05:22.758Z,28.22
2022-08-28T09:08:02.859Z,28.30
2022-08-28T09:10:39.745Z,28.38
2022-08-28T09:13:10.741Z,28.40
2022-08-28T09:15:47.551Z,28.47
2022-08-28T09:18:18.770Z,28.52
2022-08-28T09:20:51.187Z,28.57
2022-08-28T09:23:19.156Z,28.71
2022-08-28T09:25:47.944Z,28.80
2022-08-28T09:28:29.461Z,28.91
2022-08-28T09:30:57.598Z,28.95
2022-08-28T09:33:33.965Z,29.04
2022-08-28T09:36:21.276Z,29.17
2022-08-28T09:39:09.465Z,29.31
2022-08-28T09:41:58.065Z,29.59
2022-08-28T09:44:26.045Z,29.74
2022-08-28T09:46:54.343Z,29.71
2022-08-28T09:49:24.234Z,29.86
2022-08-28T09:51:52.204Z,30.10
2022-08-28T09:54:47.054Z,30.14
2022-08-28T09:57:14.864Z,30.09
2022-08-28T09:59:42.721Z,30.08
2022-08-28T10:02:27.777Z,30.15
2022-08-28T10:04:55.707Z,30.16
2022-08-28T10:07:38.987Z,30.22
2022-08-28T10:10:19.166Z,30.35
2022-08-28T10:12:47.749Z,30.57
2022-08-28T10:15:34.697Z,30.75
2022-08-28T10:18:15.240Z,30.84
2022-08-28T10:20:47.061Z,30.92
2022-08-28T10:23:21.529Z,31.08
2022-08-28T10:25:57.945Z,31.18
2022-08-28T10:28:31.958Z,31.21
2022-08-28T10:31:09.660Z,31.15
2022-08-28T10:33:52.565Z,31.18
2022-08-28T10:36:33.434Z,31.18
2022-08-28T10:39:05.821Z,31.16
2022-08-28T10:41:49.013Z,31.07
2022-08-28T10:44:33.222Z,30.97
2022-08-28T10:47:03.767Z,30.96
2022-08-28T10:49:31.618Z,31.01
2022-08-28T10:52:05.476Z,30.91
2022-08-28T10:54:44.087Z,30.89
2022-08-28T10:57:15.253Z,30.74
2022-08-28T10:59:45.010Z,30.79
2022-08-28T11:02:14.842Z,30.81
2022-08-28T11:04:43.356Z,30.72
2022-08-28T11:07:13.796Z,30.78
2022-08-28T11:09:47.855Z,30.86
2022-08-28T11:12:19.925Z,30.98
2022-08-28T11:14:49.654Z,31.09
2022-08-28T11:17:25.531Z,31.10
2022-08-28T11:20:03.703Z,31.25
2022-08-28T11:22:53.302Z,31.42
2022-08-28T11:25:41.887Z,31.71
2022-08-28T11:28:15.396Z,31.94
2022-08-28T11:30:46.450Z,32.13
2022-08-28T11:33:33.120Z,32.19
2022-08-28T11:36:01.111Z,32.10
2022-08-28T11:38:41.159Z,32.01
2022-08-28T11:41:24.367Z,32.01
2022-08-28T11:44:14.794Z,32.00
2022-08-28T11:46:44.710Z,31.97
2022-08-28T11:49:31.703Z,31.97
2022-08-28T11:52:02.717Z,31.98
2022-08-28T11:54:34.083Z,31.93
2022-08-28T11:57:14.683Z,31.98
2022-08-28T11:59:51.754Z,32.06
2022-08-28T12:02:31.920Z,32.05
2022-08-28T12:04:59.986Z,31.94
2022-08-28T12:07:34.417Z,31.84
2022-08-28T12:10:05.195Z,31.78
2022-08-28T12:12:39.206Z,31.72
2022-08-28T12:15:07.959Z,31.68
2022-08-28T12:17:44.680Z,31.72
2022-08-28T12:20:18.498Z,31.78
2022-08-28T12:23:00.388Z,31.92
2022-08-28T12:25:29.182Z,32.00
2022-08-28T12:27:58.788Z,32.06
2022-08-28T12:30:28.723Z,32.15
2022-08-28T12:33:07.631Z,32.25
2022-08-28T12:35:35.893Z,32.21
2022-08-28T12:38:06.185Z,32.15
2022-08-28T12:40:37.278Z,32.13
2022-08-28T12:43:09.515Z,32.08
2022-08-28T12:45:40.809Z,32.05
2022-08-28T12:48:21.200Z,32.05
2022-08-28T12:50:56.444Z,31.97
2022-08-28T12:53:27.170Z,31.80
2022-08-28T12:55:57.141Z,31.69
2022-08-28T12:58:30.008Z,31.66
2022-08-28T13:01:06.548Z,31.60
2022-08-28T13:03:35.111Z,31.49
2022-08-28T13:06:05.677Z,31.41
2022-08-28T13:08:34.411Z,31.35
2022-08-28T13:11:02.614Z,31.27
2022-08-28T13:13:33.823Z,31.22
2022-08-28T13:16:01.868Z,31.16
2022-08-28T13:18:50.464Z,30.91
2022-08-28T13:21:32.831Z,30.45
2022-08-28T13:24:20.610Z,30.02
2022-08-28T13:26:50.077Z,29.74
2022-08-28T13:29:20.046Z,29.42
2022-08-28T13:31:59.820Z,29.19
2022-08-28T13:34:29.604Z,29.14
2022-08-28T13:37:14.643Z,29.09
2022-08-28T13:39:47.955Z,29.10
2022-08-28T13:42:17.058Z,29.08
2022-08-28T13:44:57.010Z,29.05
2022-08-28T13:47:25.491Z,29.00
2022-08-28T13:49:53.366Z,28.95
2022-08-28T13:52:21.156Z,28.91
2022-08-28T13:54:49.111Z,28.87
2022-08-28T13:57:17.474Z,28.82
2022-08-28T13:59:45.295Z,28.82
2022-08-28T14:02:33.661Z,28.88
2022-08-28T14:05:01.662Z,28.79
2022-08-28T14:07:29.607Z,28.68
2022-08-28T14:09:57.757Z,28.66
2022-08-28T14:12:33.028Z,28.75
2022-08-28T14:15:02.212Z,28.83
2022-08-28T14:17:30.196Z,28.80
2022-08-28T14:20:00.365Z,28.73
2022-08-28T14:22:28.579Z,28.68
2022-08-28T14:24:56.512Z,28.71
2022-08-28T14:27:24.382Z,28.88
2022-08-28T14:29:53.404Z,29.09
2022-08-28T14:32:21.216Z,29.29
2022-08-28T14:34:50.771Z,29.40
2022-08-28T14:37:19.444Z,29.52
2022-08-28T14:39:48.053Z,29.63
2022-08-28T14:42:16.095Z,29.74
2022-08-28T14:44:43.926Z,29.87
2022-08-28T14:47:11.795Z,29.93
2022-08-28T14:49:39.761Z,30.04
2022-08-28T14:52:07.704Z,30.07
2022-08-28T14:54:35.682Z,30.05
2022-08-28T14:57:03.884Z,30.07
2022-08-28T14:59:33.135Z,30.12
2022-08-28T15:02:02.259Z,30.19
2022-08-28T15:04:38.216Z,30.16
2022-08-28T15:07:08.487Z,30.18
2022-08-28T15:09:40.658Z,30.22
2022-08-28T15:12:08.633Z,30.28
2022-08-28T15:14:36.733Z,30.37
2022-08-28T15:17:05.509Z,30.44
2022-08-28T15:19:33.555Z,30.38
2022-08-28T15:22:02.229Z,30.24
2022-08-28T15:24:31.524Z,30.24
2022-08-28T15:26:59.917Z,30.16
2022-08-28T15:29:30.128Z,29.97
2022-08-28T15:31:59.009Z,30.00
2022-08-28T15:34:28.511Z,30.02
2022-08-28T15:36:57.409Z,30.05
2022-08-28T15:39:45.538Z,30.10
2022-08-28T15:42:13.626Z,30.11
2022-08-28T15:44:42.111Z,30.12
2022-08-28T15:47:10.252Z,30.12
2022-08-28T15:49:46.694Z,30.12
2022-08-28T15:52:18.701Z,30.11
2022-08-28T15:54:47.524Z,30.09
2022-08-28T15:57:15.988Z,30.06
2022-08-28T15:59:49.871Z,30.02
2022-08-28T16:02:20.615Z,29.98
2022-08-28T16:04:49.095Z,29.88
2022-08-28T16:07:17.704Z,29.82
2022-08-28T16:09:45.665Z,29.76
2022-08-28T16:12:14.036Z,29.69
2022-08-28T16:14:42.267Z,29.58
2022-08-28T16:17:11.476Z,29.55
2022-08-28T16:19:40.511Z,29.51
2022-08-28T16:22:09.739Z,29.44
2022-08-28T16:24:37.842Z,29.40
2022-08-28T16:27:08.735Z,29.35
2022-08-28T16:29:39.931Z,29.30
2022-08-28T16:32:08.005Z,29.23
2022-08-28T16:34:36.932Z,29.15
2022-08-28T16:37:05.899Z,29.08
2022-08-28T16:39:36.241Z,28.98
2022-08-28T16:42:04.718Z,28.89
2022-08-28T16:44:32.802Z,28.78
2022-08-28T16:47:00.973Z,28.69
2022-08-28T16:49:28.925Z,28.61
2022-08-28T16:51:56.812Z,28.51
2022-08-28T16:54:24.736Z,28.40
2022-08-28T16:56:52.951Z,28.28
2022-08-28T16:59:23.360Z,28.17
2022-08-28T17:01:52.920Z,28.04
2022-08-28T17:04:21.991Z,27.88
2022-08-28T17:06:50.270Z,27.74
2022-08-28T17:09:20.909Z,27.58
2022-08-28T17:11:52.126Z,27.43
2022-08-28T17:14:21.460Z,27.30
2022-08-28T17:16:49.617Z,27.17
2022-08-28T17:19:17.979Z,27.04
2022-08-28T17:22:04.576Z,26.92
2022-08-28T17:24:32.594Z,26.77
2022-08-28T17:27:05.138Z,26.63
2022-08-28T17:29:34.721Z,26.51
2022-08-28T17:32:05.361Z,26.37
2022-08-28T17:34:33.387Z,26.24
2022-08-28T17:37:01.753Z,26.12
2022-08-28T17:39:29.857Z,25.99
2022-08-28T17:41:57.860Z,25.87
2022-08-28T17:44:26.552Z,25.76
2022-08-28T17:46:54.584Z,25.65
2022-08-28T17:49:23.078Z,25.52
2022-08-28T17:51:51.310Z,25.43
2022-08-28T17:54:21.706Z,25.32
2022-08-28T17:56:50.378Z,25.22
2022-08-28T17:59:18.661Z,25.10
2022-08-28T18:01:47.362Z,25.03
2022-08-28T18:04:19.008Z,24.95
2022-08-28T18:06:54.631Z,24.86
2022-08-28T18:09:23.776Z,24.77
2022-08-28T18:11:53.594Z,24.69
2022-08-28T18:14:21.586Z,24.61
2022-08-28T18:16:50.514Z,24.54
2022-08-28T18:19:18.428Z,24.45
2022-08-28T18:21:47.122Z,24.37
2022-08-28T18:24:15.183Z,24.28
2022-08-28T18:26:44.008Z,24.19
2022-08-28T18:29:13.596Z,24.09
2022-08-28T18:31:42.071Z,24.01
2022-08-28T18:34:10.477Z,23.91
2022-08-28T18:36:43.220Z,23.81
2022-08-28T18:39:11.216Z,23.73
2022-08-28T18:41:43.714Z,23.64
2022-08-28T18:44:15.493Z,23.56
2022-08-28T18:46:44.224Z,23.46
2022-08-28T18:49:12.655Z,23.40
2022-08-28T18:51:41.998Z,23.33
2022-08-28T18:54:10.700Z,23.26
2022-08-28T18:56:40.209Z,23.19
2022-08-28T18:59:09.663Z,23.15
2022-08-28T19:01:38.521Z,23.08
2022-08-28T19:04:07.433Z,23.02
2022-08-28T19:06:35.748Z,22.95
2022-08-28T19:09:05.789Z,22.88
2022-08-28T19:11:35.980Z,22.81
2022-08-28T19:14:04.231Z,22.74
2022-08-28T19:16:32.401Z,22.67
2022-08-28T19:19:01.209Z,22.60
2022-08-28T19:21:29.379Z,22.52
2022-08-28T19:23:57.742Z,22.45
2022-08-28T19:26:26.887Z,22.39
2022-08-28T19:28:54.957Z,22.32
2022-08-28T19:31:23.770Z,22.24
2022-08-28T19:33:51.748Z,22.17
2022-08-28T19:36:19.985Z,22.11
2022-08-28T19:38:47.934Z,22.04
2022-08-28T19:41:15.826Z,21.98
2022-08-28T19:43:44.668Z,21.93
2022-08-28T19:46:18.459Z,21.88
2022-08-28T19:48:49.562Z,21.83
2022-08-28T19:51:23.157Z,21.78
2022-08-28T19:53:57.210Z,21.74
2022-08-28T19:56:28.376Z,21.68
2022-08-28T19:58:58.487Z,21.62
2022-08-28T20:01:29.631Z,21.53
2022-08-28T20:03:58.926Z,21.48
2022-08-28T20:06:27.163Z,21.43
2022-08-28T20:08:55.292Z,21.39
2022-08-28T20:11:30.208Z,21.36
2022-08-28T20:14:04.264Z,21.33
2022-08-28T20:16:34.540Z,21.30
2022-08-28T20:19:03.968Z,21.29
2022-08-28T20:21:37.135Z,21.26
2022-08-28T20:24:08.164Z,21.23
2022-08-28T20:26:36.893Z,21.19
2022-08-28T20:29:06.081Z,21.16
2022-08-28T20:31:34.200Z,21.12
2022-08-28T20:34:02.025Z,21.06
2022-08-28T20:36:29.868Z,21.00
2022-08-28T20:38:57.676Z,20.94
2022-08-28T20:41:25.713Z,20.87
2022-08-28T20:43:53.624Z,20.81
2022-08-28T20:46:22.135Z,20.76
2022-08-28T20:48:50.010Z,20.72
2022-08-28T20:51:37.907Z,20.68
2022-08-28T20:54:05.824Z,20.63
2022-08-28T20:56:33.985Z,20.59
2022-08-28T20:59:01.938Z,20.55
2022-08-28T21:01:29.803Z,20.52
2022-08-28T21:03:57.914Z,20.49
2022-08-28T21:06:26.236Z,20.45
2022-08-28T21:08:56.555Z,20.42
2022-08-28T21:11:25.070Z,20.40
2022-08-28T21:13:53.228Z,20.40
2022-08-28T21:16:21.889Z,20.39
2022-08-28T21:19:12.153Z,20.38
2022-08-28T21:21:38.134Z,20.35
2022-08-28T21:24:07.199Z,20.31
2022-08-28T21:26:37.734Z,20.27
2022-08-28T21:29:06.122Z,20.22
2022-08-28T21:31:34.542Z,20.18
2022-08-28T21:34:02.462Z,20.13
2022-08-28T21:36:30.344Z,20.10
2022-08-28T21:38:58.577Z,20.06
2022-08-28T21:41:26.458Z,20.02
2022-08-28T21:43:55.771Z,19.98
2022-08-28T21:46:23.744Z,19.94
2022-08-28T21:48:53.588Z,19.88
2022-08-28T21:51:21.883Z,19.85
2022-08-28T21:53:49.747Z,19.82
2022-08-28T21:56:25.035Z,19.81
2022-08-28T21:58:54.034Z,19.81
2022-08-28T22:01:24.608Z,19.81
2022-08-28T22:03:53.297Z,19.80
2022-08-28T22:06:22.822Z,19.78
2022-08-28T22:08:51.005Z,19.76
2022-08-28T22:11:20.091Z,19.74
2022-08-28T22:13:54.484Z,19.70
2022-08-28T22:16:22.844Z,19.66
2022-08-28T22:18:51.298Z,19.61
2022-08-28T22:21:39.726Z,19.56
2022-08-28T22:24:09.002Z,19.53
2022-08-28T22:26:36.949Z,19.51
2022-08-28T22:29:05.991Z,19.51
2022-08-28T22:31:35.202Z,19.48
2022-08-28T22:34:06.033Z,19.46
2022-08-28T22:36:34.199Z,19.45
2022-08-28T22:39:02.144Z,19.42
2022-08-28T22:41:30.574Z,19.40
2022-08-28T22:43:58.954Z,19.36
2022-08-28T22:46:28.057Z,19.34
2022-08-28T22:48:56.755Z,19.34
2022-08-28T22:51:24.546Z,19.33
2022-08-28T22:53:52.591Z,19.33
2022-08-28T22:56:20.487Z,19.32
2022-08-28T22:58:48.241Z,19.31
2022-08-28T23:01:18.481Z,19.29
2022-08-28T23:03:46.950Z,19.28
2022-08-28T23:06:14.835Z,19.26
2022-08-28T23:08:43.073Z,19.24
2022-08-28T23:11:11.036Z,19.21
2022-08-28T23:13:38.913Z,19.18
2022-08-28T23:16:07.574Z,19.16
2022-08-28T23:19:06.766Z,19.14
2022-08-28T23:21:26.271Z,19.11
2022-08-28T23:23:55.161Z,19.08
2022-08-28T23:26:23.838Z,19.03
2022-08-28T23:28:52.210Z,19.01
2022-08-28T23:31:20.225Z,19.00
2022-08-28T23:33:49.652Z,18.98
2022-08-28T23:36:18.093Z,18.98
2022-08-28T23:38:47.738Z,18.97
2022-08-28T23:41:15.596Z,18.95
2022-08-28T23:43:43.398Z,18.93
2022-08-28T23:46:15.069Z,18.92
2022-08-28T23:48:43.875Z,18.91
2022-08-28T23:51:14.464Z,18.89
2022-08-28T23:53:43.113Z,18.86
2022-08-28T23:56:10.946Z,18.84
2022-08-28T23:58:43.123Z,18.82
